Time;durP1;ratioP1;P1;durP2;ratioP2;P2;SDS_P1;SDS_P2;PMS_P1;PMS_P2;Temp;Humidity;BMP_temperature;BMP_pressure;BME280_temperature;BME280_humidity;BME280_pressure;Samples;Min_cycle;Max_cycle;Signal;HPM_P1;HPM_P2
2023/09/16 00:01:08;;;;;;;25.08;13.18;;;;;;;14.59;80.86;100047.41;5116837;27;20046;-73
2023/09/16 00:03:35;;;;;;;19.50;12.88;;;;;;;14.57;81.47;100049.38;5116512;27;20515;-70
2023/09/16 00:06:00;;;;;;;15.43;12.35;;;;;;;14.57;81.54;100056.56;5116145;27;20038;-70
2023/09/16 00:08:25;;;;;;;17.05;12.25;;;;;;;14.56;82.31;100054.88;5097074;27;20049;-69
2023/09/16 00:10:50;;;;;;;16.40;12.90;;;;;;;14.57;82.89;100054.72;5096947;27;20058;-70
2023/09/16 00:13:16;;;;;;;17.17;12.30;;;;;;;14.55;82.77;100015.63;5096942;27;20051;-70
2023/09/16 00:15:45;;;;;;;15.27;12.15;;;;;;;14.57;83.17;100056.56;5098023;27;20038;-70
2023/09/16 00:18:10;;;;;;;17.65;12.88;;;;;;;14.55;83.44;100059.41;5116668;27;20050;-72
2023/09/16 00:20:36;;;;;;;20.02;13.50;;;;;;;14.55;83.61;100056.72;5117002;27;20038;-71
2023/09/16 00:23:04;;;;;;;21.55;14.52;;;;;;;14.53;83.88;100053.31;5115668;27;20046;-74
2023/09/16 00:25:29;;;;;;;17.88;14.35;;;;;;;14.55;83.79;100058.53;5116232;27;20035;-70
2023/09/16 00:27:54;;;;;;;21.50;13.98;;;;;;;14.53;83.85;100055.97;5094192;27;20047;-70
2023/09/16 00:30:20;;;;;;;20.55;13.82;;;;;;;14.52;84.58;100054.28;5112712;27;20402;-70
2023/09/16 00:32:45;;;;;;;21.23;13.75;;;;;;;14.52;84.64;100063.19;5115603;27;20043;-70
2023/09/16 00:35:10;;;;;;;16.10;12.30;;;;;;;14.51;85.05;100056.09;5106171;27;20524;-70
2023/09/16 00:37:36;;;;;;;15.50;12.00;;;;;;;14.51;85.56;100057.94;5128336;27;20356;-72
2023/09/16 00:40:01;;;;;;;20.25;13.85;;;;;;;14.51;86.26;100065.97;5091153;27;20046;-73
2023/09/16 00:42:27;;;;;;;15.18;12.43;;;;;;;14.50;86.16;100064.28;5125111;27;20064;-71
2023/09/16 00:44:52;;;;;;;18.85;14.30;;;;;;;14.49;86.82;100070.63;5091990;27;20050;-71
2023/09/16 00:47:17;;;;;;;22.88;16.50;;;;;;;14.49;86.51;100066.09;5111012;27;20046;-71
2023/09/16 00:49:43;;;;;;;20.17;14.80;;;;;;;14.49;86.79;100070.63;5113466;27;20038;-67
2023/09/16 00:52:10;;;;;;;20.90;15.68;;;;;;;14.49;86.71;100059.88;5118521;27;20045;-68
2023/09/16 00:54:36;;;;;;;20.05;15.32;;;;;;;14.51;86.62;100063.31;5085485;27;20038;-71
2023/09/16 00:57:02;;;;;;;25.65;17.67;;;;;;;14.48;87.02;100085.00;5110631;27;20412;-71
2023/09/16 00:59:32;;;;;;;26.05;19.33;;;;;;;14.50;87.01;100072.31;5120707;27;20043;-71
2023/09/16 01:01:59;;;;;;;25.92;17.27;;;;;;;14.48;87.41;100075.13;5099903;27;20050;-71
2023/09/16 01:04:25;;;;;;;27.30;18.60;;;;;;;14.48;87.85;100074.28;5116271;27;20084;-70
2023/09/16 01:06:51;;;;;;;27.85;19.98;;;;;;;14.48;87.89;100098.41;5116146;27;20053;-72
2023/09/16 01:09:20;;;;;;;24.88;19.15;;;;;;;14.47;88.13;100081.47;5118650;27;20057;-70
2023/09/16 01:11:47;;;;;;;22.35;16.75;;;;;;;14.47;87.88;100110.13;5099119;27;20026;-70
2023/09/16 01:14:12;;;;;;;23.25;17.33;;;;;;;14.47;87.98;100083.28;5100820;27;20046;-72
2023/09/16 01:16:49;;;;;;;20.40;13.85;;;;;;;14.54;87.73;100084.53;5100282;27;20039;-67
2023/09/16 01:19:20;;;;;;;16.90;12.55;;;;;;;14.48;88.10;100091.22;5100455;27;20050;-67
2023/09/16 01:21:47;;;;;;;16.25;12.65;;;;;;;14.44;88.02;100086.25;5083084;27;20046;-68
2023/09/16 01:24:18;;;;;;;19.70;13.23;;;;;;;14.45;87.90;100090.59;5118901;27;20041;-72
2023/09/16 01:26:44;;;;;;;17.50;13.32;;;;;;;14.44;87.92;100089.78;5121918;27;20042;-70
2023/09/16 01:29:10;;;;;;;16.73;11.85;;;;;;;14.44;87.97;100137.22;5120669;27;20038;-71
2023/09/16 01:31:36;;;;;;;21.67;12.57;;;;;;;14.45;87.84;100101.34;5119481;27;20042;-73
2023/09/16 01:34:10;;;;;;;16.83;12.40;;;;;;;14.45;87.89;100104.00;5101054;27;20042;-75
2023/09/16 01:36:38;;;;;;;16.70;11.55;;;;;;;14.42;88.01;100110.50;5113780;27;20081;-70
2023/09/16 01:39:05;;;;;;;14.23;10.70;;;;;;;14.40;87.66;100115.13;5096682;27;20042;-76
2023/09/16 01:41:33;;;;;;;15.75;11.95;;;;;;;14.39;87.69;100107.16;5099349;27;20057;-67
2023/09/16 01:44:00;;;;;;;16.77;11.38;;;;;;;14.34;87.93;100110.22;5099753;27;20030;-68
2023/09/16 01:46:25;;;;;;;14.20;11.10;;;;;;;14.35;88.25;100116.44;5118616;27;20042;-68
2023/09/16 01:48:50;;;;;;;15.65;11.82;;;;;;;14.33;88.28;100115.72;5118461;27;20079;-67
2023/09/16 01:51:15;;;;;;;14.35;10.63;;;;;;;14.30;88.06;100121.31;5096725;27;20484;-72
2023/09/16 01:53:41;;;;;;;15.57;10.07;;;;;;;14.33;88.63;100107.69;5100159;27;20046;-69
2023/09/16 01:56:07;;;;;;;13.40;10.13;;;;;;;14.33;88.71;100118.41;5100058;27;20053;-69
2023/09/16 01:58:32;;;;;;;14.77;10.48;;;;;;;14.34;88.24;100117.41;5098828;27;20046;-68
2023/09/16 02:00:57;;;;;;;11.88;9.02;;;;;;;14.32;88.29;100122.91;5098637;27;20050;-67
2023/09/16 02:03:22;;;;;;;11.85;9.10;;;;;;;14.32;88.79;100122.06;5099937;27;20035;-71
2023/09/16 02:05:48;;;;;;;12.05;9.05;;;;;;;14.28;88.46;100137.53;5099844;27;20515;-70
2023/09/16 02:08:14;;;;;;;12.15;8.75;;;;;;;14.29;88.61;100123.16;5082004;27;20532;-71
2023/09/16 02:10:39;;;;;;;10.45;7.45;;;;;;;14.29;88.55;100117.78;5099593;27;20042;-71
2023/09/16 02:13:04;;;;;;;12.23;8.10;;;;;;;14.30;88.75;100140.09;5078100;27;20043;-68
2023/09/16 02:15:30;;;;;;;10.82;8.80;;;;;;;14.30;88.50;100129.38;5078468;27;20421;-69
2023/09/16 02:17:55;;;;;;;13.40;10.35;;;;;;;14.32;88.74;100128.28;5096314;27;20401;-70
2023/09/16 02:20:21;;;;;;;15.40;9.43;;;;;;;14.34;88.27;100128.13;5096276;27;20074;-71
2023/09/16 02:22:48;;;;;;;12.60;9.45;;;;;;;14.33;88.56;100119.25;5102494;27;20039;-68
2023/09/16 02:25:35;;;;;;;11.73;9.27;;;;;;;14.35;88.84;100148.63;5085034;27;20049;-67
2023/09/16 02:28:01;;;;;;;10.65;8.52;;;;;;;14.37;88.91;100131.44;5115231;27;20031;-68
2023/09/16 02:30:26;;;;;;;14.05;9.82;;;;;;;14.36;88.87;100128.88;5078213;27;20519;-67
2023/09/16 02:32:52;;;;;;;11.00;9.20;;;;;;;14.36;88.80;100131.53;5110091;27;20049;-66
2023/09/16 02:35:18;;;;;;;11.93;8.35;;;;;;;14.36;89.10;100134.22;5096121;27;20042;-67
2023/09/16 02:37:43;;;;;;;15.80;9.10;;;;;;;14.37;89.04;100149.34;5114167;27;20030;-67
2023/09/16 02:40:09;;;;;;;12.00;8.95;;;;;;;14.38;88.82;100137.66;5096075;27;20509;-70
2023/09/16 02:42:34;;;;;;;13.88;9.27;;;;;;;14.37;88.83;100135.94;5092741;27;20046;-70
2023/09/16 02:45:01;;;;;;;10.93;8.88;;;;;;;14.34;88.93;100142.41;5078724;27;20047;-71
2023/09/16 02:47:33;;;;;;;9.75;7.53;;;;;;;14.33;88.97;100140.72;5095769;27;20043;-71
2023/09/16 02:50:00;;;;;;;8.13;6.65;;;;;;;14.34;89.12;100149.59;5095708;27;20047;-71
2023/09/16 02:52:25;;;;;;;7.10;6.10;;;;;;;14.30;89.06;100150.81;5078202;27;20039;-71
2023/09/16 02:54:50;;;;;;;7.88;5.63;;;;;;;14.31;89.03;100147.16;5096014;27;20057;-72
2023/09/16 02:57:15;;;;;;;8.88;5.85;;;;;;;14.28;88.92;100153.63;5096934;27;20496;-72
2023/09/16 02:59:41;;;;;;;8.35;5.45;;;;;;;14.28;89.04;100152.75;5095700;27;20043;-71
2023/09/16 03:02:06;;;;;;;6.57;4.75;;;;;;;14.28;88.84;100152.75;5080982;27;20417;-71
2023/09/16 03:04:32;;;;;;;6.10;4.38;;;;;;;14.24;89.13;100167.38;5081426;27;20512;-70
2023/09/16 03:06:57;;;;;;;6.00;4.20;;;;;;;14.24;88.68;100157.50;5096556;27;20524;-70
2023/09/16 03:09:22;;;;;;;6.38;4.13;;;;;;;14.23;88.96;100149.56;5117381;27;20061;-71
2023/09/16 03:11:48;;;;;;;4.40;3.38;;;;;;;14.21;88.59;100160.44;5098849;27;20038;-70
2023/09/16 03:14:14;;;;;;;4.47;3.28;;;;;;;14.19;88.14;100165.06;5099136;27;20049;-69
2023/09/16 03:16:39;;;;;;;3.78;2.97;;;;;;;14.17;88.06;100156.28;5114067;27;20540;-73
2023/09/16 03:19:04;;;;;;;9.70;3.17;;;;;;;14.15;87.55;100164.44;5094319;27;20084;-73
2023/09/16 03:21:30;;;;;;;3.42;2.55;;;;;;;14.12;87.75;100167.34;5064272;27;20050;-73
2023/09/16 03:24:03;;;;;;;3.20;2.90;;;;;;;14.12;87.63;100202.22;5079125;27;20047;-72
2023/09/16 03:26:29;;;;;;;3.47;3.03;;;;;;;14.11;87.35;100195.16;5080285;27;20447;-73
2023/09/16 03:28:54;;;;;;;2.95;2.50;;;;;;;14.10;87.52;100204.19;5063663;27;20051;-70
2023/09/16 03:31:24;;;;;;;3.10;2.65;;;;;;;14.12;87.52;100186.13;5098618;27;20042;-70
2023/09/16 03:33:50;;;;;;;3.40;2.60;;;;;;;14.13;87.04;100193.19;5062290;27;20046;-71
2023/09/16 03:36:15;;;;;;;5.72;2.65;;;;;;;14.13;87.04;100220.00;5096824;27;20065;-72
2023/09/16 03:38:47;;;;;;;2.85;2.53;;;;;;;14.17;86.74;100189.31;5081461;27;20050;-72
2023/09/16 03:41:13;;;;;;;2.22;2.05;;;;;;;14.15;86.69;100191.25;5096843;27;20043;-72
2023/09/16 03:43:39;;;;;;;2.17;1.58;;;;;;;14.16;86.22;100219.78;5097627;27;20058;-73
2023/09/16 03:46:04;;;;;;;2.53;1.67;;;;;;;14.16;85.96;100187.63;5097923;27;20046;-72
2023/09/16 03:48:31;;;;;;;2.40;1.77;;;;;;;14.15;85.57;100190.41;5097355;27;20051;-72
2023/09/16 03:50:56;;;;;;;1.42;1.27;;;;;;;14.14;85.14;100199.41;5095691;27;20046;-72
2023/09/16 03:53:25;;;;;;;1.30;1.20;;;;;;;14.11;84.70;100200.50;5097209;27;20512;-72
2023/09/16 03:55:52;;;;;;;2.95;2.28;;;;;;;14.08;85.03;100206.13;5098195;27;20047;-72
2023/09/16 03:58:17;;;;;;;1.40;1.33;;;;;;;14.08;85.29;100206.13;5097662;27;20058;-72
2023/09/16 04:00:43;;;;;;;1.65;1.55;;;;;;;14.10;84.81;100211.38;5097706;27;20496;-72
2023/09/16 04:03:09;;;;;;;1.33;1.23;;;;;;;14.09;85.17;100205.16;5116105;27;20046;-72
2023/09/16 04:05:34;;;;;;;4.03;1.58;;;;;;;14.10;84.92;100209.56;5097477;27;20034;-72
2023/09/16 04:07:59;;;;;;;2.55;1.75;;;;;;;14.11;84.39;100216.59;5116580;27;20863;-72
2023/09/16 04:10:24;;;;;;;1.58;1.48;;;;;;;14.13;84.62;100214.66;5116395;27;20043;-72
2023/09/16 04:12:49;;;;;;;1.38;1.20;;;;;;;14.12;84.34;100239.75;5080735;27;20046;-71
2023/09/16 04:15:16;;;;;;;1.95;1.40;;;;;;;14.13;84.55;100220.00;5097491;27;20043;-71
2023/09/16 04:17:41;;;;;;;1.42;1.33;;;;;;;14.14;84.22;100211.00;5096917;27;20501;-71
2023/09/16 04:20:07;;;;;;;1.77;1.58;;;;;;;14.15;84.20;100226.13;5096833;27;20042;-71
2023/09/16 04:22:33;;;;;;;1.98;1.40;;;;;;;14.16;84.43;100222.47;5115277;27;20073;-71
2023/09/16 04:25:00;;;;;;;1.85;1.52;;;;;;;14.15;84.30;100239.53;5079998;27;20047;-71
2023/09/16 04:27:28;;;;;;;2.58;1.50;;;;;;;14.17;84.17;100242.09;5080932;27;20038;-71
2023/09/16 04:29:54;;;;;;;1.63;1.42;;;;;;;14.15;84.21;100250.25;5097425;27;20039;-71
2023/09/16 04:32:19;;;;;;;1.88;1.58;;;;;;;14.15;83.78;100239.53;5097446;27;20393;-71
2023/09/16 04:34:45;;;;;;;1.73;1.48;;;;;;;14.13;84.08;100252.19;5097547;27;20044;-70
2023/09/16 04:37:10;;;;;;;2.13;1.92;;;;;;;14.14;84.49;100242.31;5079736;27;20058;-71
2023/09/16 04:39:35;;;;;;;1.77;1.67;;;;;;;14.14;84.08;100242.31;5079748;27;20055;-70
2023/09/16 04:42:02;;;;;;;1.60;1.48;;;;;;;14.15;84.05;100247.56;5080202;27;20067;-72
2023/09/16 04:44:29;;;;;;;1.88;1.73;;;;;;;14.14;83.89;100247.69;5079792;27;20043;-72
2023/09/16 04:46:55;;;;;;;1.52;1.40;;;;;;;14.15;83.98;100260.13;5097355;27;20042;-72
2023/09/16 04:49:23;;;;;;;1.95;1.85;;;;;;;14.14;83.16;100275.34;5097230;27;20497;-71
2023/09/16 04:51:49;;;;;;;1.23;1.10;;;;;;;14.13;83.23;100259.38;5063237;27;20046;-71
2023/09/16 04:54:14;;;;;;;1.48;1.38;;;;;;;14.12;82.99;100266.56;5097330;27;20038;-70
2023/09/16 04:56:40;;;;;;;1.80;1.70;;;;;;;14.11;82.67;100264.84;5096460;27;20421;-70
2023/09/16 04:59:05;;;;;;;6.60;1.85;;;;;;;14.11;82.66;100267.53;5080364;27;20828;-71
2023/09/16 05:01:33;;;;;;;7.85;1.92;;;;;;;14.12;82.70;100263.88;5097330;27;20043;-71
2023/09/16 05:03:59;;;;;;;4.25;1.98;;;;;;;14.14;82.66;100274.50;5066024;28;20046;-71
2023/09/16 05:06:27;;;;;;;1.63;1.45;;;;;;;14.14;82.37;100275.34;5076963;28;20047;-71
2023/09/16 05:08:55;;;;;;;2.97;2.17;;;;;;;14.16;82.21;100278.78;5056802;28;20055;-71
2023/09/16 05:11:21;;;;;;;1.70;1.60;;;;;;;14.15;82.24;100298.53;5073517;28;20070;-70
2023/09/16 05:13:52;;;;;;;4.40;2.53;;;;;;;14.15;81.76;100297.66;5073301;28;20044;-70
2023/09/16 05:16:18;;;;;;;1.48;1.38;;;;;;;14.16;81.36;100277.94;5056013;28;20405;-73
2023/09/16 05:18:44;;;;;;;2.50;2.25;;;;;;;14.13;81.12;100300.47;5094192;28;20043;-72
2023/09/16 05:21:10;;;;;;;3.42;2.33;;;;;;;14.12;81.21;100279.97;5094863;28;20043;-72
2023/09/16 05:23:37;;;;;;;2.80;1.45;;;;;;;14.10;81.32;100283.78;5093848;28;20066;-72
2023/09/16 05:26:05;;;;;;;1.45;1.35;;;;;;;14.10;81.06;100291.81;5060166;28;20050;-73
2023/09/16 05:28:32;;;;;;;4.45;1.52;;;;;;;14.10;81.01;100298.03;5076424;28;20058;-73
2023/09/16 05:31:01;;;;;;;1.33;1.23;;;;;;;14.10;80.80;100299.84;5094041;28;20054;-72
2023/09/16 05:33:28;;;;;;;0.93;0.93;;;;;;;14.08;80.96;100299.13;5095132;27;20039;-72
2023/09/16 05:35:53;;;;;;;2.08;1.45;;;;;;;14.08;80.44;100312.53;5080134;27;20055;-71
2023/09/16 05:38:20;;;;;;;1.10;0.93;;;;;;;14.07;80.22;100300.09;5097478;27;20493;-71
2023/09/16 05:40:46;;;;;;;1.27;1.08;;;;;;;14.06;79.89;100303.72;5097784;27;20042;-72
2023/09/16 05:43:11;;;;;;;1.52;1.25;;;;;;;14.05;79.69;100318.97;5098952;27;20039;-71
2023/09/16 05:45:36;;;;;;;1.20;1.10;;;;;;;14.09;79.81;100301.69;5097587;27;20622;-72
2023/09/16 05:48:04;;;;;;;1.17;1.02;;;;;;;14.10;79.40;100295.34;5097578;27;20047;-73
2023/09/16 05:50:31;;;;;;;1.92;1.13;;;;;;;14.12;79.07;100309.47;5097708;27;20779;-71
2023/09/16 05:52:57;;;;;;;3.85;1.38;;;;;;;14.13;78.98;100304.97;5097370;27;20046;-72
2023/09/16 05:55:23;;;;;;;5.72;1.40;;;;;;;14.17;79.03;100307.31;5076289;28;20052;-72
2023/09/16 05:57:49;;;;;;;1.67;0.95;;;;;;;14.18;78.82;100309.03;5078059;28;20043;-72
2023/09/16 06:00:14;;;;;;;1.13;1.02;;;;;;;14.20;78.38;100316.09;5077972;28;20043;-72
2023/09/16 06:02:40;;;;;;;3.58;2.20;;;;;;;14.19;78.35;100315.25;5087487;27;20047;-71
2023/09/16 06:05:07;;;;;;;2.20;1.30;;;;;;;14.20;78.37;100326.81;5096303;27;20389;-72
2023/09/16 06:07:33;;;;;;;2.10;1.60;;;;;;;14.22;78.32;100324.91;5096679;27;20070;-72
2023/09/16 06:09:58;;;;;;;1.23;1.20;;;;;;;14.22;78.16;100346.34;5097804;27;20046;-72
2023/09/16 06:12:23;;;;;;;2.38;1.60;;;;;;;14.21;78.09;100321.34;5097679;27;20068;-72
2023/09/16 06:14:48;;;;;;;2.45;1.38;;;;;;;14.22;77.75;100330.25;5096735;27;20054;-72
2023/09/16 06:17:13;;;;;;;7.72;1.63;;;;;;;14.14;77.85;100339.72;5096491;27;20039;-73
2023/09/16 06:19:39;;;;;;;1.55;1.33;;;;;;;14.14;78.09;100338.84;5079462;27;20054;-72
2023/09/16 06:22:06;;;;;;;2.40;1.50;;;;;;;14.11;78.20;100339.94;5079721;27;20050;-72
2023/09/16 06:24:32;;;;;;;1.67;1.42;;;;;;;14.12;78.35;100341.66;5096780;27;20054;-72
2023/09/16 06:26:57;;;;;;;2.05;1.58;;;;;;;14.18;77.91;100343.03;5097856;27;20043;-73
2023/09/16 06:29:22;;;;;;;4.25;1.27;;;;;;;14.27;77.79;100346.84;5097936;27;20050;-72
2023/09/16 06:31:48;;;;;;;2.50;1.30;;;;;;;14.39;77.54;100343.22;5062486;27;20050;-73
2023/09/16 06:34:14;;;;;;;2.20;1.55;;;;;;;14.51;76.90;100353.06;5098026;27;20047;-73
2023/09/16 06:36:41;;;;;;;1.80;1.40;;;;;;;14.58;76.28;100354.28;5096976;27;20031;-73
2023/09/16 06:39:07;;;;;;;1.98;1.77;;;;;;;14.63;76.01;100362.84;5096983;27;20049;-74
2023/09/16 06:41:33;;;;;;;3.58;2.63;;;;;;;14.63;75.29;100375.41;5079192;27;20244;-73
2023/09/16 06:44:09;;;;;;;3.78;1.60;;;;;;;14.63;75.15;100367.38;5079626;27;20051;-73
2023/09/16 06:46:36;;;;;;;11.07;2.38;;;;;;;14.59;75.10;100366.72;5095833;27;20379;-74
2023/09/16 06:49:01;;;;;;;3.90;2.33;;;;;;;14.59;74.73;100371.25;5078666;27;20057;-72
2023/09/16 06:51:26;;;;;;;3.92;2.55;;;;;;;14.62;74.79;100371.03;5096440;27;20035;-73
2023/09/16 06:53:51;;;;;;;3.92;2.22;;;;;;;14.65;74.54;100370.78;5096247;27;20051;-73
2023/09/16 06:56:16;;;;;;;4.05;2.53;;;;;;;14.68;74.18;100374.06;5079373;27;20043;-72
2023/09/16 06:58:41;;;;;;;3.30;2.40;;;;;;;14.66;74.09;100372.50;5096958;27;20046;-73
2023/09/16 07:01:09;;;;;;;3.60;2.45;;;;;;;14.63;74.02;100376.28;5097620;27;20038;-73
2023/09/16 07:03:34;;;;;;;2.28;2.05;;;;;;;14.66;74.09;100383.25;5100801;27;20054;-74
2023/09/16 07:06:00;;;;;;;1.98;1.80;;;;;;;14.64;73.71;100407.50;5102716;27;20046;-73
2023/09/16 07:08:27;;;;;;;4.60;2.45;;;;;;;14.64;73.76;100383.34;5109781;27;20058;-73
2023/09/16 07:10:52;;;;;;;3.17;2.05;;;;;;;14.67;73.66;100391.16;5118825;27;20050;-72
2023/09/16 07:13:17;;;;;;;2.92;1.95;;;;;;;14.69;73.64;100394.56;5119501;27;20039;-73
2023/09/16 07:15:42;;;;;;;3.35;1.65;;;;;;;14.72;72.96;100394.34;5118671;27;20046;-72
2023/09/16 07:18:07;;;;;;;1.98;1.20;;;;;;;14.74;72.09;100396.91;5118464;27;20042;-72
2023/09/16 07:20:33;;;;;;;1.58;1.23;;;;;;;14.75;71.71;100395.94;5118663;27;20416;-73
2023/09/16 07:22:58;;;;;;;2.15;1.30;;;;;;;14.75;71.28;100395.94;5117769;27;20039;-73
2023/09/16 07:25:23;;;;;;;1.65;1.35;;;;;;;14.75;70.86;100393.25;5117929;27;20046;-73
2023/09/16 07:27:48;;;;;;;1.63;1.35;;;;;;;14.76;70.92;100398.53;5118222;27;20049;-73
2023/09/16 07:30:17;;;;;;;1.40;1.30;;;;;;;14.81;70.56;100399.00;5118317;27;20055;-72
2023/09/16 07:32:42;;;;;;;3.45;1.52;;;;;;;15.05;69.86;100396.25;5117821;27;20373;-73
2023/09/16 07:35:08;;;;;;;1.30;1.27;;;;;;;15.35;69.40;100398.34;5117610;27;20049;-72
2023/09/16 07:37:33;;;;;;;4.75;1.63;;;;;;;15.64;68.42;100393.38;5099668;27;20042;-73
2023/09/16 07:39:58;;;;;;;2.28;1.20;;;;;;;15.81;67.30;100394.69;5098360;27;20050;-74
2023/09/16 07:42:24;;;;;;;3.65;2.08;;;;;;;15.89;66.89;100393.09;5081604;27;20050;-74
2023/09/16 07:44:49;;;;;;;2.42;1.60;;;;;;;16.16;66.28;100395.34;5098776;27;20042;-73
2023/09/16 07:47:14;;;;;;;3.45;1.70;;;;;;;16.40;65.03;100399.66;5097680;27;20079;-73
2023/09/16 07:49:39;;;;;;;3.88;1.75;;;;;;;16.41;64.05;100390.63;5116425;27;20515;-74
2023/09/16 07:52:05;;;;;;;1.58;1.48;;;;;;;16.35;63.78;100402.75;5097937;27;20378;-73
2023/09/16 07:54:30;;;;;;;2.28;1.77;;;;;;;16.27;63.81;100411.44;5097857;27;20039;-74
2023/09/16 07:56:55;;;;;;;3.20;1.88;;;;;;;16.19;63.86;100415.75;5098278;27;20509;-74
2023/09/16 07:59:21;;;;;;;2.45;1.92;;;;;;;16.13;64.28;100410.91;5119039;27;20050;-72
2023/09/16 08:01:47;;;;;;;1.98;1.85;;;;;;;16.06;64.18;100410.53;5116666;27;20081;-74
2023/09/16 08:04:12;;;;;;;2.70;2.00;;;;;;;15.99;64.37;100425.47;5098463;27;20061;-72
2023/09/16 08:06:37;;;;;;;6.50;2.03;;;;;;;15.93;64.40;100415.19;5093959;27;20043;-73
2023/09/16 08:09:03;;;;;;;2.45;2.25;;;;;;;15.90;64.83;100421.72;5095747;27;20051;-72
2023/09/16 08:11:28;;;;;;;16.52;3.95;;;;;;;15.93;65.00;100416.06;5076727;27;20043;-73
2023/09/16 08:13:53;;;;;;;3.25;2.22;;;;;;;15.98;64.52;100415.69;5095836;27;20058;-72
2023/09/16 08:16:19;;;;;;;1.88;1.73;;;;;;;16.05;64.49;100441.09;5077022;27;20055;-73
2023/09/16 08:18:44;;;;;;;4.68;2.58;;;;;;;16.10;64.35;100417.38;5097674;27;20039;-73
2023/09/16 08:21:09;;;;;;;7.88;1.70;;;;;;;16.08;63.93;100418.47;5116457;27;20508;-72
2023/09/16 08:23:35;;;;;;;2.53;1.80;;;;;;;16.03;64.19;100416.16;5116196;27;20370;-72
2023/09/16 08:26:00;;;;;;;3.40;1.77;;;;;;;15.93;63.66;100420.59;5098181;27;20045;-72
2023/09/16 08:28:25;;;;;;;4.10;1.38;;;;;;;15.81;63.86;100421.56;5098160;27;20046;-71
2023/09/16 08:30:51;;;;;;;1.90;1.70;;;;;;;15.69;63.96;100431.47;5094384;27;20081;-71
2023/09/16 08:33:16;;;;;;;2.75;2.22;;;;;;;15.59;64.31;100428.69;5095646;27;20027;-71
2023/09/16 08:35:42;;;;;;;4.30;2.10;;;;;;;15.54;64.52;100454.19;5093633;27;20054;-72
2023/09/16 08:38:08;;;;;;;3.70;2.28;;;;;;;15.53;64.75;100450.66;5077074;28;20054;-72
2023/09/16 08:40:33;;;;;;;2.47;1.98;;;;;;;15.51;64.57;100443.69;5094489;28;20054;-71
2023/09/16 08:43:11;;;;;;;5.13;2.00;;;;;;;15.59;64.76;100452.88;5094668;28;20046;-70
2023/09/16 08:45:42;;;;;;;3.03;1.55;;;;;;;15.53;64.71;100463.22;5094362;28;20050;-71
2023/09/16 08:48:14;;;;;;;2.67;1.80;;;;;;;15.50;64.01;100476.91;5093867;28;20046;-71
2023/09/16 08:50:40;;;;;;;2.83;1.40;;;;;;;15.51;64.12;100460.66;5095713;27;20043;-72
2023/09/16 08:53:09;;;;;;;3.33;1.98;;;;;;;15.56;63.93;100465.72;5095124;27;20031;-71
2023/09/16 08:55:35;;;;;;;2.30;2.13;;;;;;;15.60;64.04;100457.28;5094514;28;20047;-71
2023/09/16 08:58:09;;;;;;;2.85;2.10;;;;;;;15.69;63.89;100465.59;5096061;27;20039;-71
2023/09/16 09:00:35;;;;;;;3.90;2.53;;;;;;;15.73;63.89;100462.53;5076925;28;20047;-71
2023/09/16 09:03:00;;;;;;;3.42;1.70;;;;;;;15.74;63.67;100461.56;5095941;27;20039;-71
2023/09/16 09:05:27;;;;;;;2.47;1.65;;;;;;;15.75;63.49;100459.72;5097478;27;20047;-71
2023/09/16 09:07:52;;;;;;;5.18;1.52;;;;;;;15.75;63.14;100487.47;5096431;27;20047;-71
2023/09/16 09:10:18;;;;;;;5.50;2.25;;;;;;;15.77;63.28;100457.78;5119586;27;20050;-71
2023/09/16 09:12:44;;;;;;;2.92;1.95;;;;;;;15.77;63.00;100469.38;5083410;27;20039;-71
2023/09/16 09:15:11;;;;;;;3.25;2.08;;;;;;;15.80;62.96;100462.91;5101157;27;20043;-71
2023/09/16 09:17:54;;;;;;;6.93;2.67;;;;;;;15.93;63.03;100467.16;5119473;27;20244;-71
2023/09/16 09:20:21;;;;;;;3.60;1.95;;;;;;;15.96;62.47;100460.69;5100159;27;20427;-71
2023/09/16 09:22:49;;;;;;;1.73;1.58;;;;;;;16.00;61.96;100474.75;5119296;27;20043;-72
2023/09/16 09:25:19;;;;;;;1.85;1.73;;;;;;;16.03;61.70;100458.38;5083363;27;20515;-73
2023/09/16 09:27:45;;;;;;;5.97;2.28;;;;;;;16.03;61.70;100474.50;5119306;27;20043;-73
2023/09/16 09:30:10;;;;;;;4.40;2.20;;;;;;;16.01;61.42;100471.94;5083403;27;20054;-72
2023/09/16 09:32:37;;;;;;;3.60;1.67;;;;;;;16.04;61.18;100465.44;5100117;27;20042;-73
2023/09/16 09:35:06;;;;;;;2.30;1.80;;;;;;;16.07;61.06;100482.19;5100650;27;20493;-73
2023/09/16 09:37:31;;;;;;;2.78;1.95;;;;;;;16.05;61.11;100483.28;5082865;27;20058;-73
2023/09/16 09:40:10;;;;;;;4.60;2.15;;;;;;;16.09;61.36;100484.75;5119091;27;20054;-72
2023/09/16 09:42:44;;;;;;;4.70;2.50;;;;;;;16.07;61.44;100487.56;5119662;27;20043;-73
2023/09/16 09:45:10;;;;;;;3.05;1.83;;;;;;;16.01;61.94;100488.06;5119618;27;20131;-72
2023/09/16 09:47:37;;;;;;;3.40;2.05;;;;;;;16.00;61.51;100488.19;5102114;27;20057;-72
2023/09/16 09:50:04;;;;;;;5.88;2.17;;;;;;;15.95;61.57;100493.94;5100324;27;20046;-72
2023/09/16 09:52:31;;;;;;;2.08;1.77;;;;;;;15.93;61.65;100495.88;5120059;27;20034;-72
2023/09/16 09:54:58;;;;;;;3.63;2.50;;;;;;;15.93;61.55;100495.88;5100252;27;20058;-75
2023/09/16 09:57:28;;;;;;;2.60;1.80;;;;;;;15.89;61.66;100500.66;5100497;27;20046;-75
2023/09/16 09:59:58;;;;;;;5.93;1.90;;;;;;;15.85;61.53;100499.19;5119698;27;20450;-75
2023/09/16 10:02:26;;;;;;;2.90;1.92;;;;;;;15.78;61.78;100513.25;5100489;27;20061;-75
2023/09/16 10:05:05;;;;;;;3.22;1.67;;;;;;;15.82;61.89;100503.94;5116479;27;20489;-74
2023/09/16 10:07:31;;;;;;;5.63;1.60;;;;;;;15.77;61.88;100511.53;5118210;27;20054;-74
2023/09/16 10:09:57;;;;;;;2.47;2.28;;;;;;;15.74;61.82;100527.91;5101068;27;20070;-75
2023/09/16 10:12:23;;;;;;;2.28;1.85;;;;;;;15.69;61.61;100487.94;5079897;27;20042;-73
2023/09/16 10:14:51;;;;;;;5.03;2.30;;;;;;;15.65;61.46;100513.38;5119708;27;20034;-73
2023/09/16 10:17:16;;;;;;;5.05;1.88;;;;;;;15.64;61.63;100511.66;5121121;27;20043;-72
2023/09/16 10:19:43;;;;;;;4.05;2.42;;;;;;;15.61;61.55;100523.50;5117401;27;20050;-73
2023/09/16 10:22:10;;;;;;;2.53;1.95;;;;;;;15.54;61.48;100514.22;5119581;27;20034;-75
2023/09/16 10:24:36;;;;;;;3.60;2.00;;;;;;;15.57;61.68;100510.44;5100139;27;20046;-73
2023/09/16 10:27:11;;;;;;;2.33;2.13;;;;;;;15.62;61.49;100518.97;5101573;27;20480;-74
2023/09/16 10:29:39;;;;;;;4.10;2.38;;;;;;;15.63;61.32;100535.97;5101140;27;20042;-73
2023/09/16 10:32:05;;;;;;;4.45;1.77;;;;;;;15.70;60.89;100515.66;5118300;27;20035;-70
2023/09/16 10:34:30;;;;;;;5.60;1.60;;;;;;;15.81;60.17;100524.59;5117691;27;20042;-72
2023/09/16 10:36:56;;;;;;;5.75;2.28;;;;;;;15.91;59.96;100514.00;5117674;27;20039;-70
2023/09/16 10:39:22;;;;;;;2.92;2.38;;;;;;;15.96;59.95;100517.16;5098629;27;20057;-72
2023/09/16 10:41:48;;;;;;;3.10;2.25;;;;;;;15.99;59.66;100522.31;5097311;27;20492;-74
2023/09/16 10:44:16;;;;;;;4.80;1.90;;;;;;;16.00;59.37;100523.16;5119730;27;20416;-72
2023/09/16 10:46:43;;;;;;;2.97;1.85;;;;;;;15.96;59.49;100523.41;5119196;27;20504;-73
2023/09/16 10:49:08;;;;;;;2.20;2.05;;;;;;;15.86;59.65;100517.03;5118246;27;20057;-72
2023/09/16 10:51:42;;;;;;;5.32;2.28;;;;;;;15.83;59.63;100527.16;5118253;27;20039;-73
2023/09/16 10:54:34;;;;;;;5.75;2.05;;;;;;;15.92;59.84;100521.06;5088190;27;20047;-73
2023/09/16 10:57:07;;;;;;;5.30;2.22;;;;;;;15.81;59.92;100523.75;5078943;27;20516;-71
2023/09/16 10:59:35;;;;;;;2.65;2.00;;;;;;;15.77;60.28;100543.81;5091501;27;20038;-72
2023/09/16 11:02:14;;;;;;;2.17;1.80;;;;;;;15.83;60.40;100527.16;5117489;27;20042;-71
2023/09/16 11:04:40;;;;;;;2.75;2.05;;;;;;;15.87;60.31;100528.66;5084785;27;20050;-71
2023/09/16 11:07:05;;;;;;;4.30;2.03;;;;;;;16.03;59.76;100512.97;5117010;27;20045;-72
2023/09/16 11:09:31;;;;;;;1.95;1.85;;;;;;;16.19;58.94;100510.78;5117135;27;20050;-74
2023/09/16 11:11:57;;;;;;;2.25;2.10;;;;;;;16.34;58.63;100523.00;5098144;27;20050;-72
2023/09/16 11:14:23;;;;;;;3.75;2.35;;;;;;;16.37;58.14;100534.47;5098058;27;20046;-71
2023/09/16 11:16:50;;;;;;;1.83;1.63;;;;;;;16.39;58.02;100519.91;5081637;27;20412;-71
2023/09/16 11:19:20;;;;;;;2.88;1.98;;;;;;;16.43;58.10;100520.53;5099043;27;20043;-72